Terminal Aerodrome Forecast
Issued by NWS Paducah, KY

Home | Current Version | Previous Version | Text Only | Print | Product List | Glossary On
Versions: 1 2 3 4 5 6 7 8 9 10 11 12 13
000
FTUS43 KPAH 101700
TAFPAH
TAF
KPAH 101730Z 1018/1118 04003KT P6SM FEW050 BKN250
     FM110100 00000KT P6SM SCT250
     FM111400 12004KT P6SM SCT250=

USA.gov is the U.S. government's official web portal to all federal, state and local government web resources and services.